Briefing drone pour Saint-alban-leysse

Rechercher une autre localisation

Conditions de vol :


Nous sommes le : Mardi 25 janvier 2022
Il est 01:20 UTC (02:20 LT)

Lever de soleil : 06:38 UTC (07:38 LT)
Coucher de soleil : 16:58 UTC (17:58 LT)

Météo

L'essentiel des conditions de vol

VIGILANCE MÉTÉO FRANCE - Savoie (73)
Pas de vigilances particulieres
CARTE TEMSI
CARTES DES FRONTS
METAR de LFLB
LFLB 250100Z AUTO VRB02KT 3900 BR NSC M04/M04 Q1034

Date d'émission: 25/01/2022
Heure d'émission: 01:00 UTC
Vent: Variable 2 KT (4 km/h)
Visibilité horizontale: 3900 m
Plafond : Pas de nuages significatifs (NSC)
Température: -4 °C
Point de rosée: -4 °C
Humidité: 100%
Pression (QNH): 1034 hPa
Conditions: Brume
TAF de LFLB
LFLB 242000Z 2420/2515 CNL

Conditions prévues :

Heure d'émission : Bulletin éffectué le 24 à 20:00 UTC
Prévision : Valide du 24 a 20:00 UTC au 25 a 15:00 UTC
Nuages : à 0ft (0 m)
WEBCAM POUR SAINT-ALBAN-LEYSSE

Réglementation

Voler en sécurité

CARTES AERONAUTIQUE 1/500.000
CARTES VAC (LFLB)
SUP AIP




Chargement des AIP...
NOTAM (SAINT-ALBAN-LEYSSE + Terrain à proximité / FIR )




Chargement des NOTAMS...
CONTACT PREFECTURE 73


Avertissement : Les données mises à disposition sont indicatives. Oxygène Drone ne pourra être tenu responsable de dégâts causés aux biens et aux personnes.